Dana, Illinois
Current Conditions -  °F | °C
As of 1:55 AM on Thursday 27 Nov 2014 (Local Time) from KPNT Reporting Station
Haze Haze  
Wind Chill: 15°   Ceiling: 3400
Heat Index: 26°   Visibility: 5mi
Dew Point: 23°   Wind: 13mph
Humidity: 87%   Direction: 320°NW
Pressure: 30.25"   Gusts: NA
Location:  40.96°N, 88.95°W
Report Text: KPNT 270755Z AUTO 32011KT 5SM BR OVC034 M03/M05 A3025 RMK AO2 T10311050
Loading
Personal Weather Stations






























Interactive Weather Map New forecast layout! Learn more

10-Day Weather Forecast

Advertisements
Track Severe Weather on mobile